Aéroport Valenciennes-Denain

LFAV · North, Hauts-de-France, France

METAR history LFAV · Aéroport Valenciennes-Denain

Below you see METARs of the last few days. Select a year to browse through older METARs, from the year 2007 onwards.

December 3, 2022

Time Code Weather Temp. Visibility Ceiling Wind METAR/SPECI
07:30
M
2 °C 10 km+ 1,600 ft 050° 050° 10 kt SPECI LFQQ 030630Z AUTO 05010KT 9999 OVC016 02/M01 Q1020 BECMG OVC012
07:30
M
2 °C 10 km+ 1,600 ft 050° 050° 10 kt METAR LFQQ 030630Z AUTO 05010KT 9999 OVC016 02/M01 Q1020 BECMG OVC012
07:00
M
2 °C 10 km+ 1,500 ft 050° 050° 8 kt METAR LFQQ 030600Z AUTO 05008KT 9999 BKN015 OVC020 02/M01 Q1020 BECMG OVC012
06:30
M
2 °C 10 km+ 1,500 ft 050° 050° 10 kt METAR LFQQ 030530Z AUTO 05010KT 9999 OVC015 02/M01 Q1020 TEMPO 4000 DZ BR OVC008
06:00
M
2 °C 10 km+ 1,600 ft 040° 040° 9 kt METAR LFQQ 030500Z AUTO 04009KT 9999 OVC016 02/M01 Q1020 TEMPO 4000 DZ BR OVC008
05:30
M
2 °C 10 km+ 1,800 ft 030° 030° 10 kt METAR LFQQ 030430Z AUTO 03010KT 9999 OVC018 02/M01 Q1020 TEMPO 4000 DZ BR OVC008
05:00
M
2 °C 10 km+ 2,100 ft 040° 040° 9 kt METAR LFQQ 030400Z AUTO 04009KT 9999 OVC021 02/M01 Q1020 TEMPO 4000 DZ BR OVC008
04:30
M
2 °C 10 km+ 1,800 ft 040° 040° 10 kt METAR LFQQ 030330Z AUTO 04010KT 9999 OVC018 02/M01 Q1020 TEMPO 4000 DZ BR OVC008
04:00
M
2 °C 10 km+ 1,800 ft 040° 040° 11 kt METAR LFQQ 030300Z AUTO 04011KT 9999 OVC018 02/M01 Q1021 TEMPO 4000 DZ BR OVC008
03:30
M
2 °C 10 km+ 1,900 ft 040° 040° 11 kt METAR LFQQ 030230Z AUTO 04011KT 9999 OVC019 02/M01 Q1021 TEMPO 4000 DZ BR OVC008
03:00
M
2 °C 9 km 1,900 ft 040° 040° 10 kt METAR LFQQ 030200Z AUTO 04010KT 9000 OVC019 02/M01 Q1021 TEMPO 4000 DZ BR OVC008
02:30
M
2 °C 9 km 1,800 ft 040° 040° 11 kt METAR LFQQ 030130Z AUTO 04011KT 9000 OVC018 02/M01 Q1021 TEMPO 4000 DZ BR OVC008
02:00
M
2 °C 9 km 2,000 ft 030° 030° 10 kt METAR LFQQ 030100Z AUTO 03010KT 9000 OVC020 02/M01 Q1021 TEMPO 4000 DZ BR OVC008
01:30
M
2 °C 8 km 2,100 ft 040° 040° 11 kt METAR LFQQ 030030Z AUTO 04011KT 8000 OVC021 02/M00 Q1021 TEMPO 4000 DZ BR OVC008
01:00
M
2 °C 9 km 2,400 ft 040° 040° 10 kt METAR LFQQ 030000Z AUTO 04010KT 9000 OVC024 02/M01 Q1021 TEMPO 4000 DZ BR OVC008
00:30
M
3 °C 9 km 2,400 ft 040° 040° 12 kt METAR LFQQ 022330Z AUTO 04012KT 9000 OVC024 03/M01 Q1021 TEMPO 4000 DZ BR OVC008
00:00
M
3 °C 8 km 2,200 ft 040° 040° 12 kt METAR LFQQ 022300Z AUTO 04012KT 8000 OVC022 03/M00 Q1021 TEMPO 4000 DZ BR OVC008

December 2, 2022

Time Code Weather Temp. Visibility Ceiling Wind METAR/SPECI
23:30
M
3 °C 9 km 2,000 ft 040° 040° 11 kt METAR LFQQ 022230Z AUTO 04011KT 9000 OVC020 03/M00 Q1021 TEMPO 4000 DZ BR OVC008
23:00
M
3 °C 8 km 1,500 ft 050° 050° 12 kt METAR LFQQ 022200Z AUTO 05012KT 8000 OVC015 03/M00 Q1021 TEMPO 4000 DZ BR OVC008
22:30
M
3 °C 7 km 1,200 ft 060° 060° 12 kt METAR LFQQ 022130Z AUTO 06012KT 7000 OVC012 03/00 Q1022 TEMPO 4000 DZ BR OVC008
22:00
M
3 °C 8 km 1,200 ft 040° 040° 13 kt METAR LFQQ 022100Z AUTO 04013KT 8000 OVC012 03/01 Q1022 TEMPO 4000 DZ BR OVC008
21:30
M
3 °C 10 km+ 1,200 ft 050° 050° 14 kt METAR LFQQ 022030Z AUTO 05014KT 9999 OVC012 03/01 Q1021 TEMPO 4000 DZ BR OVC008
21:00
M
3 °C 10 km+ 1,300 ft 050° 050° 15 kt METAR LFQQ 022000Z AUTO 05015KT 9999 OVC013 03/01 Q1021 TEMPO 4000 DZ BR OVC008
20:30
M
3 °C 10 km+ 1,300 ft 040° 040° 13 kt METAR LFQQ 021930Z AUTO 04013KT 9999 OVC013 03/01 Q1021 TEMPO 4000 DZ BR OVC008
20:00
M
3 °C 9 km 1,300 ft 030° 030° 14 kt METAR LFQQ 021900Z AUTO 03014KT 9000 OVC013 03/01 Q1021 TEMPO SCT013 OVC022
19:30
M
4 °C 7 km 1,300 ft 030° 030° 11 kt METAR LFQQ 021830Z AUTO 03011KT 7000 OVC013 04/01 Q1021 TEMPO SCT013 OVC022
19:00
M
4 °C 7 km 1,400 ft 030° 030° 11 kt METAR LFQQ 021800Z AUTO 03011KT 7000 BKN014 OVC019 04/02 Q1021 TEMPO SCT013 OVC022
18:30
M
4 °C 7 km 1,200 ft 030° 030° 9 kt METAR LFQQ 021730Z AUTO 03009KT 7000 OVC012 04/02 Q1021 TEMPO 3000 -SN OVC002
18:00
M
4 °C 7 km 1,200 ft 040° 040° 9 kt METAR LFQQ 021700Z AUTO 04009KT 7000 OVC012 04/02 Q1021 TEMPO 3000 -SN OVC002
17:30
M
4 °C 7 km 1,100 ft 030° 030° 10 kt METAR LFQQ 021630Z AUTO 03010KT 7000 OVC011 04/02 Q1021 TEMPO 3000 -SN OVC002
17:00
M
3 °C 7 km 1,000 ft 030° 030° 9 kt METAR LFQQ 021600Z AUTO 03009KT 7000 OVC010 03/02 Q1021 NOSIG
16:30
M
3 °C 7 km 1,100 ft 030° 030° 10 kt METAR LFQQ 021530Z AUTO 03010KT 7000 OVC011 03/02 Q1021 BECMG BKN006
16:00
M
3 °C 7 km 1,300 ft 030° 030° 10 kt METAR LFQQ 021500Z AUTO 03010KT 7000 OVC013 03/01 Q1021 TEMPO 3000 BR BECMG BKN006
15:30
M
3 °C 9 km 1,600 ft 030° 030° 9 kt METAR LFQQ 021430Z AUTO 03009KT 9000 OVC016 03/01 Q1021 TEMPO 3000 BR BECMG BKN006
15:00
M
3 °C 9 km 1,500 ft 040° 040° 10 kt METAR LFQQ 021400Z AUTO 04010KT 9000 OVC015 03/01 Q1021 TEMPO 3000 BR BKN006
14:30
M
3 °C 6 km 1,100 ft 040° 040° 11 kt METAR LFQQ 021330Z AUTO 04011KT 6000 BKN011 OVC018 03/02 Q1021 TEMPO 3000 BR BKN006
14:00
I
3 °C 4.5 km 800 ft 030° 030° 11 kt METAR LFQQ 021300Z AUTO 03011KT 4500 BR BKN008 BKN012 OVC018 03/02 Q1021 NOSIG
13:30
I
3 °C 3.5 km 600 ft 040° 040° 12 kt METAR LFQQ 021230Z AUTO 04012KT 3500 BR OVC006 03/02 Q1022 BECMG 6000 NSW BKN012 BKN020
13:00
I
3 °C 3.4 km 600 ft 050° 050° 10 kt METAR LFQQ 021200Z AUTO 05010KT 3400 BR BKN006 OVC011 03/03 Q1022 TEMPO OVC004 BECMG 8000 NSW
12:30
I
4 °C 4.3 km 1,000 ft 020° 020° 13 kt METAR LFQQ 021130Z AUTO 02013KT 4300 DZ BR OVC010 04/02 Q1022 TEMPO OVC004 BECMG 8000 NSW
12:00
M
4 °C 5 km 1,200 ft 010° 010° 10 kt METAR LFQQ 021100Z AUTO 01010KT 5000 BR BKN012 OVC018 04/02 Q1022 TEMPO OVC004
11:30
M
5 °C 6 km 1,300 ft 010° 010° 12 kt METAR LFQQ 021030Z AUTO 01012KT 6000 BKN013 OVC020 05/03 Q1022 TEMPO OVC004
11:00
L
5 °C 800 m 1,800 ft 010° 010° 10 kt METAR LFQQ 021000Z AUTO 01010KT 5000 0800 R26/1900D R08/P5000 BCFG FEW012 OVC018 05/03 Q1023 TEMPO OVC004
10:30
I
5 °C 4.4 km 1,700 ft 020° 020° 10 kt METAR LFQQ 020930Z AUTO 02010KT 4400 BR SCT009 BKN017 OVC064 05/04 Q1023 TEMPO OVC004 BECMG 8000 NSW
10:00
I
4 °C 3.6 km 600 ft 020° 020° 6 kt METAR LFQQ 020900Z AUTO 02006KT 3600 BR BKN006 OVC018 04/04 Q1023 TEMPO OVC004 BECMG 8000 NSW
09:30
I
4 °C 3.5 km 600 ft 010° 010° 5 kt METAR LFQQ 020830Z AUTO 01005KT 3500 BR BKN006 BKN017 OVC052 04/04 Q1023 TEMPO OVC004 BECMG 8000 NSW
09:00
I
4 °C 3.4 km 1,400 ft 360° 360° 6 kt METAR LFQQ 020800Z AUTO 36006KT 3400 BR FEW007 BKN014 OVC020 04/03 Q1023 TEMPO OVC004 BECMG 8000 NSW
08:30
I
4 °C 4.2 km 5,600 ft 010° 010° 5 kt METAR LFQQ 020730Z AUTO 01005KT 350V070 4200 BR FEW005 SCT047 OVC056 04/03 Q1023 TEMPO OVC004 BECMG 8000 NSW
08:00
I
3 °C 4.6 km 4,800 ft 350° 350° 4 kt METAR LFQQ 020700Z AUTO 35004KT 4600 BR FEW004 OVC048 03/03 Q1023 TEMPO OVC004 BECMG 8000 NSW
07:30
I
3 °C 4.8 km 4,800 ft 350° 350° 6 kt METAR LFQQ 020630Z AUTO 35006KT 4800 BR SCT004 OVC048 03/03 Q1023 TEMPO OVC004 BECMG 8000 NSW
07:00
I
3 °C 4.6 km 4,900 ft 350° 350° 5 kt METAR LFQQ 020600Z AUTO 35005KT 4600 BR OVC049 03/03 Q1023 BECMG 8000 NSW BKN009
06:30
I
3 °C 4.7 km 4,400 ft 020° 020° 5 kt METAR LFQQ 020530Z AUTO 02005KT 4700 BR OVC044 03/03 Q1023 BECMG 6000 NSW BKN009
06:00
I
3 °C 4.6 km - 010° 010° 4 kt METAR LFQQ 020500Z AUTO 01004KT 4600 BR NSC 03/03 Q1023 BECMG 6000 NSW BKN009
05:30
I
3 °C 4.7 km - 030° 030° 4 kt METAR LFQQ 020430Z AUTO 03004KT 4700 BR NSC 03/02 Q1024 BECMG 6000 NSW BKN009
05:00
M
3 °C 5 km - 360° 360° 5 kt METAR LFQQ 020400Z AUTO 36005KT 5000 BR NSC 03/02 Q1024 TEMPO BKN004
04:30
M
3 °C 5 km - 010° 010° 4 kt METAR LFQQ 020330Z AUTO 01004KT 5000 BR NSC 03/02 Q1024 TEMPO BKN004
04:00
M
3 °C 5 km - 360° 360° 4 kt METAR LFQQ 020300Z AUTO 36004KT 5000 BR NSC 03/02 Q1024 TEMPO BKN004
03:30
M
3 °C 5 km - 350° 350° 6 kt METAR LFQQ 020230Z AUTO 35006KT 5000 BR NSC 03/02 Q1025 TEMPO BKN004
03:00
M
2 °C 5 km - 350° 350° 6 kt METAR LFQQ 020200Z AUTO 35006KT 5000 BR NSC 02/02 Q1025 TEMPO BKN004
02:30
I
2 °C 4.8 km - 030° 030° 3 kt METAR LFQQ 020130Z AUTO 03003KT 350V070 4800 BR NSC 02/02 Q1025 TEMPO BKN004
02:00
I
2 °C 4.6 km - Var 000° 0 kt METAR LFQQ 020100Z AUTO 00000KT 4600 BR NSC 02/02 Q1025 TEMPO BKN004
01:30
I
2 °C 4.9 km - 360° 360° 5 kt METAR LFQQ 020030Z AUTO 36005KT 4900 BR NSC 02/02 Q1025 TEMPO BKN004
01:00
M
2 °C 5 km - 350° 350° 6 kt METAR LFQQ 020000Z AUTO 35006KT 5000 BR NSC 02/02 Q1025 TEMPO BKN004
00:30
I
2 °C 4.8 km - 360° 360° 3 kt METAR LFQQ 012330Z AUTO 36003KT 4800 BR NSC 02/01 Q1026 TEMPO BKN004
00:00
M
2 °C 5 km - 350° 350° 7 kt METAR LFQQ 012300Z AUTO 35007KT 5000 BR NSC 02/02 Q1026 TEMPO BKN010 BKN020

December 1, 2022

Time Code Weather Temp. Visibility Ceiling Wind METAR/SPECI
23:30
M
3 °C 5 km - 010° 010° 5 kt METAR LFQQ 012230Z AUTO 01005KT 5000 BR NSC 03/02 Q1026 TEMPO BKN010 BKN020
23:00
M
3 °C 6 km - 020° 020° 7 kt METAR LFQQ 012200Z AUTO 02007KT 6000 NSC 03/02 Q1026 TEMPO BKN010 BKN020
22:30
M
3 °C 6 km - 010° 010° 7 kt METAR LFQQ 012130Z AUTO 01007KT 6000 FEW028 03/02 Q1026 TEMPO BKN010 BKN020
22:00
M
3 °C 6 km - 010° 010° 7 kt METAR LFQQ 012100Z AUTO 01007KT 6000 FEW027 03/02 Q1026 NOSIG
21:30
M
3 °C 6 km - 010° 010° 7 kt METAR LFQQ 012030Z AUTO 01007KT 6000 FEW025 03/02 Q1026 NOSIG
21:00
M
3 °C 6 km - 010° 010° 6 kt METAR LFQQ 012000Z AUTO 01006KT 6000 NSC 03/02 Q1026 NOSIG
20:30
M
4 °C 7 km - 010° 010° 6 kt METAR LFQQ 011930Z AUTO 01006KT 7000 NSC 04/03 Q1027 NOSIG
20:00
M
4 °C 7 km - 020° 020° 6 kt METAR LFQQ 011900Z AUTO 02006KT 7000 FEW027 04/03 Q1027 NOSIG
19:30
M
5 °C 7 km 2,700 ft 020° 020° 6 kt METAR LFQQ 011830Z AUTO 02006KT 7000 OVC027 05/03 Q1027 NOSIG
19:00
M
5 °C 8 km 2,500 ft 020° 020° 6 kt METAR LFQQ 011800Z AUTO 02006KT 8000 OVC025 05/04 Q1027 NOSIG
18:30
M
5 °C 8 km 2,500 ft 030° 030° 3 kt METAR LFQQ 011730Z AUTO 03003KT 360V060 8000 OVC025 05/04 Q1027 NOSIG
18:00
V
4 °C 10 km+ - 020° 020° 6 kt METAR LFQQ 011700Z AUTO 02006KT 9999 FEW027 04/02 Q1027 NOSIG
17:30
V
5 °C 9 km - 030° 030° 6 kt METAR LFQQ 011630Z AUTO 03006KT 9000 NSC 05/03 Q1026 NOSIG
17:00
V
5 °C 10 km+ - 020° 020° 5 kt METAR LFQQ 011600Z AUTO 02005KT 9999 FEW017 05/03 Q1026 NOSIG
16:30
V
6 °C 10 km+ - 030° 030° 5 kt METAR LFQQ 011530Z AUTO 03005KT 9999 FEW020 06/03 Q1026 NOSIG
16:00
M
6 °C 10 km+ 1,900 ft 040° 040° 7 kt METAR LFQQ 011500Z AUTO 04007KT 9999 // BKN019 BKN028 06/03 Q1026
15:30
V
7 °C 10 km+ - 040° 040° 7 kt METAR LFQQ 011430Z AUTO 04007KT 9999 FEW016 07/04 Q1026 NOSIG
15:00
M
7 °C 10 km+ 2,100 ft 020° 020° 8 kt METAR LFQQ 011400Z AUTO 02008KT 9999 SCT016 BKN021 BKN027 07/04 Q1026 NOSIG
14:30
M
7 °C 10 km+ 1,400 ft 020° 020° 8 kt METAR LFQQ 011330Z AUTO 02008KT 9999 BKN014 OVC023 07/04 Q1027 BECMG BKN020
14:00
M
7 °C 9 km 2,400 ft 020° 020° 7 kt METAR LFQQ 011300Z AUTO 02007KT 340V050 9000 SCT015 OVC024 07/04 Q1027 NOSIG
13:30
L
7 °C 250 m 1,700 ft 020° 020° 7 kt METAR LFQQ 011230Z AUTO 02007KT 9999 0250 R26/P5000 R08/0275N // BKN017 BKN024 07/04 Q1027
13:00
M
7 °C 10 km+ 1,900 ft 040° 040° 9 kt METAR LFQQ 011200Z AUTO 04009KT 9999 BKN019 BKN026 07/04 Q1027 NOSIG
12:30
V
7 °C 10 km+ - 020° 020° 8 kt METAR LFQQ 011130Z AUTO 02008KT CAVOK 07/04 Q1027 NOSIG
12:00
V
7 °C 10 km+ - 040° 040° 6 kt METAR LFQQ 011100Z AUTO 04006KT 9999 FEW023 07/04 Q1027 BECMG BKN010
11:30
M
6 °C 7 km 2,300 ft 030° 030° 4 kt METAR LFQQ 011030Z AUTO 03004KT 7000 OVC023 06/04 Q1028 BECMG BKN010
11:00
M
5 °C 6 km 2,300 ft 010° 010° 4 kt METAR LFQQ 011000Z AUTO 01004KT 320V040 6000 FEW008 OVC023 05/04 Q1028 BECMG BKN010
10:30
I
5 °C 6 km 700 ft 010° 010° 7 kt METAR LFQQ 010930Z AUTO 01007KT 6000 BKN007 OVC024 05/04 Q1028 BECMG BKN010
10:00
M
5 °C 7 km 2,400 ft 020° 020° 7 kt METAR LFQQ 010900Z AUTO 02007KT 7000 SCT008 OVC024 05/04 Q1028 BECMG BKN010
09:30
M
5 °C 7 km 2,400 ft 030° 030° 6 kt METAR LFQQ 010830Z AUTO 03006KT 7000 FEW008 OVC024 05/04 Q1028 BECMG BKN010
09:00
I
5 °C 8 km 800 ft 040° 040° 8 kt METAR LFQQ 010800Z AUTO 04008KT 8000 OVC008 05/03 Q1028 TEMPO 3000 BR OVC003
08:30
I
5 °C 7 km 800 ft 040° 040° 7 kt METAR LFQQ 010730Z AUTO 04007KT 010V070 7000 OVC008 05/04 Q1027 TEMPO 3000 BR OVC003
08:00
I
4 °C 7 km 700 ft 030° 030° 6 kt METAR LFQQ 010700Z AUTO 03006KT 7000 OVC007 04/04 Q1027 TEMPO 3000 BR OVC003
07:30
I
4 °C 7 km 700 ft 030° 030° 10 kt METAR LFQQ 010630Z AUTO 03010KT 7000 OVC007 04/04 Q1027 TEMPO 3000 BR OVC003
07:00
I
4 °C 6 km 600 ft 030° 030° 9 kt METAR LFQQ 010600Z AUTO 03009KT 6000 OVC006 04/04 Q1027 TEMPO 3000 BR OVC003
06:30
I
4 °C 7 km 600 ft 030° 030° 11 kt METAR LFQQ 010530Z AUTO 03011KT 7000 OVC006 04/03 Q1027 TEMPO 3000 BR OVC003
06:00
I
5 °C 6 km 700 ft 040° 040° 9 kt METAR LFQQ 010500Z AUTO 04009KT 6000 OVC007 05/04 Q1027 TEMPO 3000 BR OVC003
05:30
I
5 °C 5 km 600 ft 030° 030° 6 kt METAR LFQQ 010430Z AUTO 03006KT 5000 BR OVC006 05/04 Q1027 TEMPO 0700 FG VV///
05:00
I
5 °C 6 km 500 ft 020° 020° 10 kt METAR LFQQ 010400Z AUTO 02010KT 6000 OVC005 05/04 Q1027 TEMPO 0700 FG VV///
04:30
L
5 °C 5 km 400 ft 020° 020° 7 kt METAR LFQQ 010330Z AUTO 02007KT 350V050 5000 BR OVC004 05/04 Q1027 TEMPO 0700 FG VV///
04:00
L
4 °C 5 km 300 ft 030° 030° 9 kt METAR LFQQ 010300Z AUTO 03009KT 5000 BR OVC003 04/04 Q1027 TEMPO 0700 FG VV///
03:30
L
5 °C 5 km 400 ft 040° 040° 7 kt METAR LFQQ 010230Z AUTO 04007KT 010V070 5000 BR OVC004 05/04 Q1027 TEMPO 0700 FG VV///
03:00
L
5 °C 5 km 400 ft 030° 030° 5 kt METAR LFQQ 010200Z AUTO 03005KT 360V070 5000 BR OVC004 05/05 Q1027 TEMPO 0700 FG VV///
02:30
L
4 °C 5 km 400 ft 010° 010° 6 kt METAR LFQQ 010130Z AUTO 01006KT 5000 BR BKN004 04/04 Q1027 TEMPO 0700 FG VV///
02:00
L
4 °C 5 km 400 ft 020° 020° 5 kt METAR LFQQ 010100Z AUTO 02005KT 5000 BR BKN004 04/04 Q1027 TEMPO 0700 FG VV///
01:30
L
5 °C 5 km 400 ft 020° 020° 5 kt METAR LFQQ 010030Z AUTO 02005KT 5000 BR OVC004 05/04 Q1027 TEMPO 0700 FG VV///
01:00
L
5 °C 5 km 400 ft 040° 040° 5 kt METAR LFQQ 010000Z AUTO 04005KT 5000 BR OVC004 05/05 Q1027 TEMPO 0700 FG VV///
00:30
L
5 °C 2.9 km 200 ft 050° 050° 8 kt METAR LFQQ 302330Z AUTO 05008KT 2900 BR OVC002 05/05 Q1027 TEMPO 0700 FG VV///
00:00
L
5 °C 3.2 km 200 ft 050° 050° 7 kt METAR LFQQ 302300Z AUTO 05007KT 3200 BR OVC002 05/05 Q1027 TEMPO 0700 FG VV///

November 30, 2022

Time Code Weather Temp. Visibility Ceiling Wind METAR/SPECI
23:30
L
6 °C 2.2 km - 030° 030° 7 kt METAR LFQQ 302230Z AUTO 03007KT 2200 BR VV/// 06/06 Q1027 TEMPO 0700 FG
23:00
L
6 °C 600 m - 360° 360° 4 kt METAR LFQQ 302200Z AUTO 36004KT 0700 0600 R26/0900N R08/0800N FG VV/// 06/06 Q1026 NOSIG
22:30
L
6 °C 600 m - 350° 350° 4 kt METAR LFQQ 302130Z AUTO 35004KT 320V040 0750 0600 R26/0900D R08/0750N FG VV/// 06/06 Q1026 NOSIG
22:00
L
6 °C 650 m - 320° 320° 4 kt METAR LFQQ 302100Z AUTO 32004KT 300V360 0800 0650 R26/2300U R08/0700D FG VV/// 06/05 Q1026 NOSIG
21:30
L
6 °C 600 m - 300° 300° 6 kt METAR LFQQ 302030Z AUTO 30006KT 1200 0600 R26/3700D R08/0750D BCFG VV/// 06/05 Q1026 TEMPO 0700 FG
21:00
L
6 °C 3.3 km 300 ft 320° 320° 2 kt METAR LFQQ 302000Z AUTO 32002KT 3300 BR BKN003 OVC017 06/06 Q1026 TEMPO 0700 FG VV///
20:30
L
6 °C 3.7 km 400 ft 350° 350° 2 kt METAR LFQQ 301930Z AUTO 35002KT 3700 BR BKN004 BKN019 OVC050 06/06 Q1026 TEMPO 0700 FG VV///
20:00
L
6 °C 3.6 km 400 ft 340° 340° 3 kt METAR LFQQ 301900Z AUTO 34003KT 3600 BR OVC004 06/06 Q1026 TEMPO 0700 FG VV///
19:30
L
6 °C 3.6 km 400 ft Var Var 3 kt METAR LFQQ 301830Z AUTO VRB03KT 3600 BR OVC004 06/06 Q1026 TEMPO 0700 FG VV///
19:00
L
6 °C 3.8 km 400 ft 340° 340° 2 kt METAR LFQQ 301800Z AUTO 34002KT 3800 BR OVC004 06/06 Q1026 NOSIG
18:30
L
6 °C 3.5 km 400 ft 340° 340° 3 kt METAR LFQQ 301730Z AUTO 34003KT 310V010 3500 BR BKN004 OVC054 06/06 Q1025 TEMPO 0700 FG VV///
18:00
L
6 °C 4.6 km 400 ft 350° 350° 3 kt METAR LFQQ 301700Z AUTO 35003KT 4600 BR BKN004 BKN046 OVC052 06/06 Q1025 TEMPO 0700 FG VV///
17:30
I
6 °C 5 km 500 ft 330° 330° 4 kt METAR LFQQ 301630Z AUTO 33004KT 5000 BR OVC005 06/06 Q1025 TEMPO 0700 FG VV///
17:00
L
6 °C 4.3 km 400 ft Var Var 1 kt METAR LFQQ 301600Z AUTO VRB01KT 4300 BR OVC004 06/06 Q1025 BECMG 2000 BR
16:30
L
6 °C 3 km 300 ft 360° 360° 3 kt METAR LFQQ 301530Z AUTO 36003KT 330V030 3000 BR OVC003 06/06 Q1025 NOSIG
16:00
L
6 °C 2.7 km 200 ft 010° 010° 4 kt METAR LFQQ 301500Z AUTO 01004KT 2700 BR OVC002 06/06 Q1025 NOSIG
15:30
L
6 °C 2.8 km 300 ft 010° 010° 3 kt METAR LFQQ 301430Z AUTO 01003KT 310V060 2800 BR OVC003 06/06 Q1025 BECMG 9999 NSW OVC007
15:00
L
6 °C 3.4 km 300 ft Var Var 3 kt METAR LFQQ 301400Z AUTO VRB03KT 3400 BR OVC003 06/06 Q1025 BECMG 9999 NSW OVC007
14:30
L
6 °C 3.3 km 300 ft 040° 040° 6 kt METAR LFQQ 301330Z AUTO 04006KT 3300 BR OVC003 06/06 Q1025 BECMG 9999 NSW OVC007
14:00
L
7 °C 3.8 km 300 ft 040° 040° 5 kt METAR LFQQ 301300Z AUTO 04005KT 3800 BR BKN003 OVC007 07/07 Q1024 BECMG 9999 NSW OVC007
13:30
L
6 °C 4 km 400 ft 020° 020° 4 kt METAR LFQQ 301230Z AUTO 02004KT 330V060 4000 BR OVC004 06/06 Q1024 BECMG 9999 NSW OVC007
13:00
L
6 °C 3.8 km - 360° 360° 4 kt METAR LFQQ 301200Z AUTO 36004KT 320V070 3800 BR VV/// 06/06 Q1024 BECMG 9999 NSW OVC007
12:30
L
6 °C 500 m - Var 000° 0 kt METAR LFQQ 301130Z AUTO 00000KT 1100 0500 R26/0700N R08/1700U BCFG VV/// 06/06 Q1025 BECMG 9999 NSW OVC007
12:00
L
6 °C 400 m - Var Var 2 kt METAR LFQQ 301100Z AUTO VRB02KT 0450 0400 R26/0450D R08/0800U FG VV/// 06/06 Q1024 BECMG 9999 NSW OVC007
11:30
L
6 °C 300 m - Var Var 1 kt METAR LFQQ 301030Z AUTO VRB01KT 0350 0300 R26/0450N R08/0450N FG VV/// 06/06 Q1025 BECMG 9999 NSW OVC007
11:00
L
6 °C 450 m - Var Var 3 kt METAR LFQQ 301000Z AUTO VRB03KT 0500 0450 R26/0550N R08/0800U FG VV/// 06/06 Q1025 BECMG 9999 NSW OVC007

We and third parties follow your internet behavior on our website with cookies. If you continue, we assume you agree with our cookie policy.